createdAt,value
2023-05-05T00:00:04.186Z,6.70
2023-05-05T00:02:31.645Z,6.40
2023-05-05T00:05:00.447Z,6.30
2023-05-05T00:07:27.898Z,7.03
2023-05-05T00:09:55.625Z,6.63
2023-05-05T00:12:23.047Z,6.50
2023-05-05T00:14:50.391Z,5.75
2023-05-05T00:17:17.915Z,6.07
2023-05-05T00:19:45.344Z,6.38
2023-05-05T00:22:14.110Z,5.90
2023-05-05T00:24:41.643Z,6.35
2023-05-05T00:27:09.022Z,6.47
2023-05-05T00:29:36.385Z,6.30
2023-05-05T00:32:03.778Z,6.13
2023-05-05T00:34:31.789Z,6.40
2023-05-05T00:36:59.162Z,6.88
2023-05-05T00:39:27.883Z,6.65
2023-05-05T00:41:55.250Z,6.15
2023-05-05T00:44:37.838Z,6.68
2023-05-05T00:47:05.359Z,7.25
2023-05-05T00:49:33.840Z,6.60
2023-05-05T00:52:01.296Z,7.20
2023-05-05T00:54:30.475Z,6.55
2023-05-05T00:56:58.017Z,6.20
2023-05-05T00:59:25.789Z,6.15
2023-05-05T01:01:53.236Z,6.53
2023-05-05T01:04:20.687Z,6.50
2023-05-05T01:06:54.809Z,6.35
2023-05-05T01:09:31.124Z,6.38
2023-05-05T01:12:11.291Z,5.82
2023-05-05T01:14:41.990Z,6.13
2023-05-05T01:17:17.032Z,5.93
2023-05-05T01:20:07.813Z,6.22
2023-05-05T01:22:40.584Z,6.25
2023-05-05T01:25:27.394Z,5.85
2023-05-05T01:28:20.304Z,6.78
2023-05-05T01:31:18.807Z,6.18
2023-05-05T01:33:50.670Z,5.93
2023-05-05T01:36:24.402Z,5.88
2023-05-05T01:38:57.978Z,5.38
2023-05-05T01:41:29.211Z,5.88
2023-05-05T01:43:59.159Z,6.03
2023-05-05T01:46:28.047Z,6.25
2023-05-05T01:48:57.763Z,5.82
2023-05-05T01:51:28.053Z,5.93
2023-05-05T01:53:59.088Z,6.03
2023-05-05T01:56:27.623Z,6.38
2023-05-05T01:58:56.529Z,6.25
2023-05-05T02:01:26.983Z,5.85
2023-05-05T02:03:57.761Z,6.13
2023-05-05T02:06:26.784Z,6.68
2023-05-05T02:08:55.305Z,6.00
2023-05-05T02:11:22.998Z,5.97
2023-05-05T02:13:51.935Z,6.10
2023-05-05T02:16:20.643Z,5.97
2023-05-05T02:18:49.347Z,6.05
2023-05-05T02:21:18.677Z,6.25
2023-05-05T02:23:47.078Z,6.57
2023-05-05T02:26:16.799Z,6.50
2023-05-05T02:28:49.737Z,5.65
2023-05-05T02:31:18.738Z,5.63
2023-05-05T02:33:48.289Z,6.18
2023-05-05T02:36:21.793Z,4.75
2023-05-05T02:38:54.010Z,5.20
2023-05-05T02:41:22.537Z,5.53
2023-05-05T02:43:52.024Z,4.82
2023-05-05T02:46:19.438Z,8.07
2023-05-05T02:48:46.905Z,3.95
2023-05-05T02:51:14.340Z,3.15
2023-05-05T02:53:43.209Z,3.25
2023-05-05T02:56:18.996Z,3.80
2023-05-05T02:58:52.500Z,3.38
2023-05-05T03:01:30.407Z,3.10
2023-05-05T03:04:05.434Z,3.25
2023-05-05T03:06:40.196Z,3.95
2023-05-05T03:09:13.111Z,3.33
2023-05-05T03:11:48.368Z,2.55
2023-05-05T03:14:19.184Z,3.60
2023-05-05T03:16:48.211Z,2.08
2023-05-05T03:19:19.300Z,2.55
2023-05-05T03:21:49.019Z,2.28
2023-05-05T03:24:19.014Z,2.30
2023-05-05T03:26:47.727Z,1.38
2023-05-05T03:29:15.665Z,1.95
2023-05-05T03:31:43.447Z,1.83
2023-05-05T03:34:10.998Z,1.42
2023-05-05T03:36:39.466Z,1.20
2023-05-05T03:39:06.886Z,1.83
2023-05-05T03:41:35.770Z,1.50
2023-05-05T03:44:03.161Z,1.27
2023-05-05T03:46:30.593Z,1.95
2023-05-05T03:48:58.053Z,1.25
2023-05-05T03:51:25.984Z,2.10
2023-05-05T03:53:53.790Z,1.98
2023-05-05T03:56:21.181Z,1.50
2023-05-05T03:58:49.911Z,0.90
2023-05-05T04:01:17.270Z,1.55
2023-05-05T04:03:44.769Z,1.23
2023-05-05T04:06:15.274Z,1.67
2023-05-05T04:08:42.662Z,1.65
2023-05-05T04:11:10.112Z,1.85
2023-05-05T04:13:37.487Z,1.83
2023-05-05T04:16:06.677Z,1.52
2023-05-05T04:18:34.046Z,1.10
2023-05-05T04:21:01.691Z,1.33
2023-05-05T04:23:29.049Z,1.50
2023-05-05T04:25:56.894Z,2.63
2023-05-05T04:28:24.292Z,1.60
2023-05-05T04:30:51.789Z,1.60
2023-05-05T04:33:20.572Z,3.20
2023-05-05T04:35:48.300Z,1.85
2023-05-05T04:38:15.690Z,1.73
2023-05-05T04:40:43.272Z,2.28
2023-05-05T04:43:10.649Z,1.50
2023-05-05T04:45:38.409Z,2.17
2023-05-05T04:48:06.754Z,1.77
2023-05-05T04:50:35.520Z,2.15
2023-05-05T04:53:03.030Z,2.08
2023-05-05T04:55:30.449Z,1.90
2023-05-05T04:57:57.867Z,1.80
2023-05-05T05:00:25.321Z,2.35
2023-05-05T05:02:53.343Z,1.95
2023-05-05T05:05:21.552Z,1.77
2023-05-05T05:07:50.661Z,1.50
2023-05-05T05:10:18.247Z,1.33
2023-05-05T05:12:45.745Z,0.98
2023-05-05T05:15:14.126Z,1.67
2023-05-05T05:17:41.559Z,1.67
2023-05-05T05:20:09.906Z,1.30
2023-05-05T05:22:38.760Z,2.10
2023-05-05T05:25:08.010Z,1.77
2023-05-05T05:27:35.384Z,1.58
2023-05-05T05:30:03.093Z,1.48
2023-05-05T05:32:30.610Z,1.80
2023-05-05T05:34:58.021Z,1.25
2023-05-05T05:37:25.403Z,1.77
2023-05-05T05:39:53.076Z,1.13
2023-05-05T05:42:21.867Z,2.03
2023-05-05T05:44:49.280Z,1.45
2023-05-05T05:47:16.637Z,2.25
2023-05-05T05:49:44.111Z,2.15
2023-05-05T05:52:11.529Z,1.63
2023-05-05T05:54:38.914Z,2.53
2023-05-05T05:57:06.947Z,1.88
2023-05-05T05:59:35.678Z,1.45
2023-05-05T06:02:04.742Z,1.63
2023-05-05T06:04:32.424Z,2.15
2023-05-05T06:07:00.146Z,2.03
2023-05-05T06:09:27.536Z,1.65
2023-05-05T06:11:54.908Z,1.98
2023-05-05T06:14:22.265Z,2.08
2023-05-05T06:16:52.168Z,1.65
2023-05-05T06:19:19.541Z,1.85
2023-05-05T06:21:46.943Z,1.77
2023-05-05T06:24:14.343Z,1.55
2023-05-05T06:26:41.714Z,1.33
2023-05-05T06:29:10.513Z,1.65
2023-05-05T06:31:39.619Z,1.33
2023-05-05T06:34:08.443Z,1.15
2023-05-05T06:36:35.927Z,1.45
2023-05-05T06:39:03.315Z,1.50
2023-05-05T06:41:30.702Z,1.42
2023-05-05T06:43:58.064Z,1.65
2023-05-05T06:46:25.926Z,1.65
2023-05-05T06:48:53.348Z,1.27
2023-05-05T06:51:22.671Z,1.00
2023-05-05T06:53:50.168Z,1.38
2023-05-05T06:56:17.582Z,0.73
2023-05-05T06:58:44.980Z,1.25
2023-05-05T07:01:12.399Z,1.08
2023-05-05T07:03:39.995Z,1.60
2023-05-05T07:06:07.922Z,1.30
2023-05-05T07:08:36.699Z,1.15
2023-05-05T07:11:04.291Z,1.48
2023-05-05T07:13:31.673Z,1.25
2023-05-05T07:15:59.403Z,1.35
2023-05-05T07:18:26.817Z,1.40
2023-05-05T07:20:54.493Z,1.17
2023-05-05T07:23:22.006Z,1.10
2023-05-05T07:25:50.841Z,1.15
2023-05-05T07:28:18.488Z,1.45
2023-05-05T07:30:45.871Z,1.70
2023-05-05T07:33:14.437Z,1.30
2023-05-05T07:35:41.847Z,1.33
2023-05-05T07:38:10.798Z,1.30
2023-05-05T07:40:38.392Z,1.80
2023-05-05T07:43:07.811Z,1.15
2023-05-05T07:45:35.317Z,1.67
2023-05-05T07:48:02.822Z,1.58
2023-05-05T07:50:30.292Z,1.52
2023-05-05T07:53:10.916Z,1.63
2023-05-05T07:55:41.860Z,2.22
2023-05-05T07:58:11.606Z,1.30
2023-05-05T08:00:39.446Z,1.27
2023-05-05T08:03:09.734Z,1.40
2023-05-05T08:05:38.936Z,1.13
2023-05-05T08:08:06.963Z,1.20
2023-05-05T08:10:34.361Z,1.08
2023-05-05T08:13:01.802Z,1.02
2023-05-05T08:15:30.656Z,0.70
2023-05-05T08:17:58.142Z,1.35
2023-05-05T08:20:29.370Z,0.85
2023-05-05T08:22:56.940Z,1.20
2023-05-05T08:25:26.798Z,1.00
2023-05-05T08:27:54.441Z,1.48
2023-05-05T08:30:22.226Z,1.20
2023-05-05T08:32:51.042Z,1.50
2023-05-05T08:35:18.767Z,1.20
2023-05-05T08:37:46.221Z,1.15
2023-05-05T08:40:14.980Z,1.08
2023-05-05T08:42:42.518Z,1.15
2023-05-05T08:45:11.499Z,1.50
2023-05-05T08:47:40.254Z,1.15
2023-05-05T08:50:11.729Z,1.10
2023-05-05T08:52:41.270Z,1.75
2023-05-05T08:55:15.171Z,1.00
2023-05-05T08:57:47.463Z,1.25
2023-05-05T09:00:16.183Z,1.45
2023-05-05T09:02:44.276Z,1.17
2023-05-05T09:05:13.273Z,0.93
2023-05-05T09:07:41.346Z,0.77
2023-05-05T09:10:11.131Z,1.00
2023-05-05T09:12:41.192Z,0.82
2023-05-05T09:15:10.192Z,0.93
2023-05-05T09:17:38.921Z,1.02
2023-05-05T09:20:08.722Z,1.55
2023-05-05T09:22:39.015Z,1.02
2023-05-05T09:25:08.360Z,1.38
2023-05-05T09:27:40.766Z,1.13
2023-05-05T09:30:09.533Z,1.35
2023-05-05T09:32:45.165Z,1.17
2023-05-05T09:35:12.713Z,0.90
2023-05-05T09:37:41.619Z,1.15
2023-05-05T09:40:10.721Z,1.50
2023-05-05T09:42:39.067Z,1.02
2023-05-05T09:45:26.423Z,1.10
2023-05-05T09:47:59.115Z,1.10
2023-05-05T09:50:30.514Z,1.02
2023-05-05T09:53:01.423Z,0.93
2023-05-05T09:55:29.247Z,0.90
2023-05-05T09:57:56.706Z,1.33
2023-05-05T10:00:38.275Z,1.67
2023-05-05T10:03:05.787Z,1.50
2023-05-05T10:05:33.282Z,1.25
2023-05-05T10:08:13.504Z,1.45
2023-05-05T10:10:48.265Z,1.08
2023-05-05T10:13:19.014Z,1.55
2023-05-05T10:15:48.094Z,1.55
2023-05-05T10:18:18.104Z,1.38
2023-05-05T10:20:49.157Z,1.88
2023-05-05T10:23:20.294Z,1.50
2023-05-05T10:25:54.619Z,1.50
2023-05-05T10:28:30.565Z,1.40
2023-05-05T10:31:02.144Z,0.93
2023-05-05T10:33:36.640Z,1.25
2023-05-05T10:36:07.558Z,1.67
2023-05-05T10:38:37.058Z,1.00
2023-05-05T10:41:04.910Z,1.17
2023-05-05T10:43:32.405Z,1.58
2023-05-05T10:46:00.515Z,1.05
2023-05-05T10:48:33.723Z,1.05
2023-05-05T10:51:11.989Z,1.55
2023-05-05T10:53:45.598Z,1.13
2023-05-05T10:56:20.422Z,1.08
2023-05-05T10:58:58.863Z,1.17
2023-05-05T11:01:33.197Z,1.30
2023-05-05T11:04:20.831Z,1.30
2023-05-05T11:07:22.512Z,1.02
2023-05-05T11:09:58.906Z,1.23
2023-05-05T11:12:26.375Z,1.10
2023-05-05T11:15:37.384Z,1.17
2023-05-05T11:18:07.914Z,1.27
2023-05-05T11:21:16.022Z,1.13
2023-05-05T11:23:45.925Z,1.35
2023-05-05T11:26:15.908Z,1.40
2023-05-05T11:29:01.596Z,0.93
2023-05-05T11:31:30.640Z,1.38
2023-05-05T11:34:12.911Z,0.88
2023-05-05T11:36:41.888Z,0.80
2023-05-05T11:39:19.957Z,1.52
2023-05-05T11:42:12.458Z,1.15
2023-05-05T11:44:40.081Z,1.05
2023-05-05T11:47:28.675Z,1.00
2023-05-05T11:49:56.673Z,0.95
2023-05-05T11:52:28.269Z,1.33
2023-05-05T11:55:01.665Z,1.00
2023-05-05T11:57:31.109Z,1.17
2023-05-05T12:00:01.201Z,1.00
2023-05-05T12:02:29.975Z,1.02
2023-05-05T12:04:58.207Z,1.05
2023-05-05T12:07:27.409Z,1.15
2023-05-05T12:09:55.979Z,0.85
2023-05-05T12:12:36.813Z,1.00
2023-05-05T12:15:05.391Z,1.40
2023-05-05T12:17:39.220Z,1.02
2023-05-05T12:20:08.697Z,1.00
2023-05-05T12:22:36.536Z,1.00
2023-05-05T12:25:05.584Z,1.20
2023-05-05T12:27:33.291Z,1.25
2023-05-05T12:30:14.685Z,1.45
2023-05-05T12:32:42.281Z,1.00
2023-05-05T12:35:11.640Z,1.30
2023-05-05T12:37:39.174Z,1.15
2023-05-05T12:40:08.773Z,1.17
2023-05-05T12:42:40.146Z,1.13
2023-05-05T12:45:17.524Z,1.25
2023-05-05T12:47:46.282Z,1.20
2023-05-05T12:50:13.711Z,1.30
2023-05-05T12:52:45.445Z,1.00
2023-05-05T12:55:13.482Z,1.50
2023-05-05T12:58:02.010Z,1.23
2023-05-05T13:00:29.653Z,1.17
2023-05-05T13:02:58.635Z,1.20
2023-05-05T13:05:33.314Z,1.00
2023-05-05T13:08:00.754Z,1.42
2023-05-05T13:10:28.401Z,1.20
2023-05-05T13:12:56.636Z,1.95
2023-05-05T13:15:24.092Z,1.10
2023-05-05T13:17:51.510Z,1.20
2023-05-05T13:20:20.291Z,1.25
2023-05-05T13:22:47.755Z,1.10
2023-05-05T13:25:15.155Z,1.13
2023-05-05T13:27:42.701Z,1.48
2023-05-05T13:30:11.176Z,1.02
2023-05-05T13:32:38.720Z,0.98
2023-05-05T13:35:07.372Z,1.00
2023-05-05T13:37:36.322Z,1.27
2023-05-05T13:40:04.090Z,1.50
2023-05-05T13:42:31.524Z,0.95
2023-05-05T13:44:58.892Z,1.20
2023-05-05T13:47:26.443Z,1.38
2023-05-05T13:49:53.836Z,1.50
2023-05-05T13:52:21.195Z,0.98
2023-05-05T13:54:51.390Z,1.55
2023-05-05T13:57:18.777Z,1.80
2023-05-05T13:59:46.305Z,1.23
2023-05-05T14:02:13.707Z,1.15
2023-05-05T14:04:41.416Z,1.10
2023-05-05T14:07:08.851Z,0.93
2023-05-05T14:09:36.236Z,1.13
2023-05-05T14:12:06.103Z,1.17
2023-05-05T14:14:34.349Z,1.20
2023-05-05T14:17:01.862Z,0.90
2023-05-05T14:19:29.377Z,1.20
2023-05-05T14:21:57.487Z,0.98
2023-05-05T14:24:24.897Z,1.60
2023-05-05T14:26:52.294Z,1.05
2023-05-05T14:29:21.021Z,1.70
2023-05-05T14:31:48.448Z,0.90
2023-05-05T14:34:15.963Z,1.00
2023-05-05T14:36:43.380Z,1.30
2023-05-05T14:39:11.371Z,1.05
2023-05-05T14:41:38.842Z,1.13
2023-05-05T14:44:06.354Z,0.93
2023-05-05T14:46:35.321Z,0.93
2023-05-05T14:49:02.725Z,1.10
2023-05-05T14:51:30.223Z,1.05
2023-05-05T14:53:57.624Z,0.95
2023-05-05T14:56:26.462Z,1.10
2023-05-05T14:58:54.027Z,1.25
2023-05-05T15:01:21.655Z,1.13
2023-05-05T15:03:50.553Z,1.70
2023-05-05T15:06:17.972Z,1.00
2023-05-05T15:08:45.379Z,1.17
2023-05-05T15:11:13.717Z,1.30
2023-05-05T15:13:41.570Z,1.38
2023-05-05T15:16:09.384Z,1.30
2023-05-05T15:18:37.370Z,1.15
2023-05-05T15:21:06.436Z,1.70
2023-05-05T15:23:33.917Z,1.17
2023-05-05T15:26:01.420Z,1.50
2023-05-05T15:28:28.873Z,1.20
2023-05-05T15:30:56.563Z,1.20
2023-05-05T15:33:23.920Z,1.02
2023-05-05T15:35:51.307Z,1.20
2023-05-05T15:38:20.034Z,0.90
2023-05-05T15:40:50.092Z,1.20
2023-05-05T15:43:17.663Z,1.10
2023-05-05T15:45:45.844Z,1.45
2023-05-05T15:48:13.300Z,1.10
2023-05-05T15:50:40.702Z,1.20
2023-05-05T15:53:08.083Z,1.20
2023-05-05T15:55:37.934Z,1.23
2023-05-05T15:58:05.320Z,1.02
2023-05-05T16:00:32.700Z,1.63
2023-05-05T16:03:00.169Z,1.02
2023-05-05T16:05:27.639Z,1.02
2023-05-05T16:07:55.000Z,1.13
2023-05-05T16:10:22.587Z,1.30
2023-05-05T16:12:52.012Z,1.60
2023-05-05T16:15:19.579Z,1.10
2023-05-05T16:17:46.964Z,1.25
2023-05-05T16:20:14.752Z,1.02
2023-05-05T16:22:42.293Z,1.60
2023-05-05T16:25:10.350Z,1.38
2023-05-05T16:27:38.002Z,1.33
2023-05-05T16:30:08.721Z,1.40
2023-05-05T16:32:36.148Z,1.67
2023-05-05T16:35:03.749Z,0.98
2023-05-05T16:37:31.161Z,1.00
2023-05-05T16:39:58.858Z,1.10
2023-05-05T16:42:26.302Z,1.35
2023-05-05T16:44:53.718Z,1.15
2023-05-05T16:47:22.439Z,1.17
2023-05-05T16:49:50.229Z,1.08
2023-05-05T16:52:17.675Z,1.40
2023-05-05T16:54:45.159Z,0.77
2023-05-05T16:57:12.759Z,1.20
2023-05-05T16:59:41.627Z,1.55
2023-05-05T17:02:09.525Z,1.13
2023-05-05T17:04:38.315Z,1.75
2023-05-05T17:07:05.742Z,1.30
2023-05-05T17:09:33.212Z,1.50
2023-05-05T17:12:00.670Z,1.80
2023-05-05T17:14:28.149Z,1.88
2023-05-05T17:16:55.506Z,1.67
2023-05-05T17:19:22.880Z,1.17
2023-05-05T17:21:51.564Z,1.85
2023-05-05T17:24:18.951Z,1.70
2023-05-05T17:26:46.554Z,1.35
2023-05-05T17:29:15.054Z,1.38
2023-05-05T17:31:42.668Z,1.20
2023-05-05T17:34:10.098Z,1.35
2023-05-05T17:36:37.502Z,1.25
2023-05-05T17:39:06.403Z,1.30
2023-05-05T17:41:33.948Z,1.45
2023-05-05T17:44:01.303Z,1.10
2023-05-05T17:46:28.889Z,1.35
2023-05-05T17:48:56.411Z,1.92
2023-05-05T17:51:23.816Z,1.23
2023-05-05T17:53:51.185Z,1.70
2023-05-05T17:56:19.945Z,1.10
2023-05-05T17:58:48.113Z,1.42
2023-05-05T18:01:22.133Z,1.65
2023-05-05T18:03:52.898Z,1.20
2023-05-05T18:06:20.305Z,1.50
2023-05-05T18:08:47.721Z,1.70
2023-05-05T18:11:15.208Z,2.05
2023-05-05T18:13:44.194Z,1.50
2023-05-05T18:16:11.644Z,1.33
2023-05-05T18:18:40.500Z,1.50
2023-05-05T18:21:11.784Z,1.95
2023-05-05T18:23:39.268Z,2.05
2023-05-05T18:26:07.248Z,1.50
2023-05-05T18:28:34.622Z,2.10
2023-05-05T18:31:03.354Z,1.40
2023-05-05T18:33:30.791Z,1.77
2023-05-05T18:35:58.222Z,1.48
2023-05-05T18:38:25.702Z,1.67
2023-05-05T18:40:53.086Z,1.67
2023-05-05T18:43:20.810Z,1.92
2023-05-05T18:45:48.198Z,1.83
2023-05-05T18:48:16.943Z,2.03
2023-05-05T18:50:44.307Z,1.38
2023-05-05T18:53:13.557Z,1.25
2023-05-05T18:55:42.858Z,2.33
2023-05-05T18:58:13.839Z,1.70
2023-05-05T19:00:41.501Z,2.13
2023-05-05T19:03:08.890Z,1.40
2023-05-05T19:05:39.844Z,1.80
2023-05-05T19:08:07.374Z,2.13
2023-05-05T19:10:34.847Z,1.92
2023-05-05T19:13:02.529Z,2.08
2023-05-05T19:15:29.988Z,1.98
2023-05-05T19:17:57.491Z,1.90
2023-05-05T19:20:24.933Z,1.92
2023-05-05T19:22:53.670Z,1.65
2023-05-05T19:25:21.075Z,2.28
2023-05-05T19:27:48.461Z,1.70
2023-05-05T19:30:16.233Z,1.83
2023-05-05T19:32:44.199Z,2.05
2023-05-05T19:35:11.978Z,1.98
2023-05-05T19:37:39.622Z,1.52
2023-05-05T19:40:09.920Z,2.33
2023-05-05T19:42:37.589Z,1.90
2023-05-05T19:45:05.779Z,1.70
2023-05-05T19:47:33.386Z,2.10
2023-05-05T19:50:00.798Z,1.45
2023-05-05T19:52:28.248Z,2.22
2023-05-05T19:54:55.994Z,1.35
2023-05-05T19:57:24.744Z,1.80
2023-05-05T19:59:52.412Z,1.70
2023-05-05T20:02:21.831Z,2.10
2023-05-05T20:04:49.541Z,1.95
2023-05-05T20:07:17.831Z,1.58
2023-05-05T20:09:45.246Z,1.60
2023-05-05T20:12:13.307Z,2.13
2023-05-05T20:14:42.013Z,1.40
2023-05-05T20:17:09.498Z,2.10
2023-05-05T20:19:36.883Z,1.77
2023-05-05T20:22:04.346Z,1.90
2023-05-05T20:24:31.796Z,2.40
2023-05-05T20:26:59.197Z,2.10
2023-05-05T20:29:26.739Z,2.28
2023-05-05T20:34:24.843Z,1.73
2023-05-05T20:36:52.440Z,2.33
2023-05-05T20:39:19.848Z,2.03
2023-05-05T20:41:47.300Z,2.20
2023-05-05T20:44:14.680Z,2.30
2023-05-05T20:46:43.849Z,2.30
2023-05-05T20:49:12.668Z,2.30
2023-05-05T20:51:40.054Z,2.08
2023-05-05T20:54:07.483Z,2.33
2023-05-05T20:56:34.876Z,1.95
2023-05-05T20:59:02.380Z,1.88
2023-05-05T21:01:29.882Z,2.35
2023-05-05T21:03:57.307Z,2.17
2023-05-05T21:06:26.010Z,1.90
2023-05-05T21:08:53.445Z,1.90
2023-05-05T21:11:21.443Z,2.33
2023-05-05T21:13:48.821Z,2.30
2023-05-05T21:16:16.324Z,2.45
2023-05-05T21:18:46.579Z,2.00
2023-05-05T21:21:13.998Z,2.13
2023-05-05T21:23:42.755Z,2.30
2023-05-05T21:26:10.368Z,2.10
2023-05-05T21:28:37.754Z,2.22
2023-05-05T21:31:21.350Z,1.50
2023-05-05T21:33:49.568Z,2.33
2023-05-05T21:36:18.980Z,2.28
2023-05-05T21:38:47.752Z,2.13
2023-05-05T21:41:15.112Z,2.72
2023-05-05T21:43:42.494Z,2.15
2023-05-05T21:46:09.925Z,1.60
2023-05-05T21:48:38.699Z,1.73
2023-05-05T21:51:06.682Z,1.63
2023-05-05T21:53:34.175Z,1.73
2023-05-05T21:56:03.143Z,1.63
2023-05-05T21:58:30.593Z,1.90
2023-05-05T22:00:58.014Z,2.08
2023-05-05T22:03:26.085Z,1.58
2023-05-05T22:05:53.664Z,2.28
2023-05-05T22:08:21.093Z,1.58
2023-05-05T22:10:48.500Z,1.70
2023-05-05T22:13:17.370Z,1.52
2023-05-05T22:15:47.298Z,1.60
2023-05-05T22:18:15.271Z,2.15
2023-05-05T22:20:43.276Z,2.03
2023-05-05T22:23:10.720Z,1.90
2023-05-05T22:25:38.117Z,1.70
2023-05-05T22:28:05.818Z,1.80
2023-05-05T22:30:34.548Z,2.45
2023-05-05T22:33:02.002Z,1.83
2023-05-05T22:35:29.478Z,1.92
2023-05-05T22:37:56.904Z,2.53
2023-05-05T22:40:24.333Z,2.00
2023-05-05T22:42:51.832Z,1.63
2023-05-05T22:45:19.356Z,1.55
2023-05-05T22:47:48.167Z,1.88
2023-05-05T22:50:15.937Z,2.45
2023-05-05T22:52:43.331Z,2.85
2023-05-05T22:55:12.705Z,2.90
2023-05-05T22:57:40.636Z,2.25
2023-05-05T23:00:10.706Z,2.13
2023-05-05T23:02:38.493Z,2.42
2023-05-05T23:05:07.943Z,2.25
2023-05-05T23:07:35.604Z,2.45
2023-05-05T23:10:03.116Z,2.35
2023-05-05T23:12:30.607Z,2.22
2023-05-05T23:14:57.989Z,2.88
2023-05-05T23:17:25.468Z,1.98
2023-05-05T23:19:52.837Z,2.65
2023-05-05T23:22:21.541Z,1.92
2023-05-05T23:24:48.939Z,2.58
2023-05-05T23:27:16.380Z,2.15
2023-05-05T23:29:43.742Z,2.88
2023-05-05T23:32:11.135Z,2.20
2023-05-05T23:34:38.530Z,2.20
2023-05-05T23:37:06.428Z,2.75
2023-05-05T23:39:36.469Z,2.53
2023-05-05T23:42:04.172Z,2.08
2023-05-05T23:44:31.538Z,2.63
2023-05-05T23:46:58.951Z,2.00
2023-05-05T23:49:26.412Z,2.70
2023-05-05T23:51:53.834Z,2.25
2023-05-05T23:54:21.377Z,2.47
2023-05-05T23:56:50.177Z,2.67
2023-05-05T23:59:17.830Z,2.70
